createdAt,value
2023-09-14T00:01:23.283Z,100632.79
2023-09-14T00:03:52.969Z,100631.03
2023-09-14T00:06:21.105Z,100634.37
2023-09-14T00:08:49.011Z,100636.23
2023-09-14T00:11:16.966Z,100635.55
2023-09-14T00:13:44.856Z,100638.61
2023-09-14T00:16:12.827Z,100638.88
2023-09-14T00:18:40.875Z,100637.08
2023-09-14T00:21:09.072Z,100638.23
2023-09-14T00:23:36.959Z,100642.23
2023-09-14T00:26:04.828Z,100648.14
2023-09-14T00:28:32.783Z,100647.04
2023-09-14T00:31:00.678Z,100645.98
2023-09-14T00:33:28.760Z,100656.15
2023-09-14T00:35:56.795Z,100660.27
2023-09-14T00:38:26.346Z,100661.55
2023-09-14T00:40:54.276Z,100663.67
2023-09-14T00:43:22.358Z,100666.12
2023-09-14T00:45:50.858Z,100665.20
2023-09-14T00:48:19.354Z,100667.73
2023-09-14T00:50:48.371Z,100668.41
2023-09-14T00:53:17.452Z,100668.64
2023-09-14T00:55:46.788Z,100669.00
2023-09-14T00:58:17.338Z,100670.93
2023-09-14T01:00:47.733Z,100676.10
2023-09-14T01:03:17.276Z,100675.66
2023-09-14T01:05:46.320Z,100678.99
2023-09-14T01:08:14.961Z,100684.49
2023-09-14T01:10:45.203Z,100684.27
2023-09-14T01:13:33.905Z,100688.90
2023-09-14T01:16:17.735Z,100692.67
2023-09-14T01:19:05.142Z,100692.16
2023-09-14T01:21:52.024Z,100694.09
2023-09-14T01:24:41.987Z,100697.07
2023-09-14T01:27:11.561Z,100700.56
2023-09-14T01:29:41.749Z,100707.94
2023-09-14T01:32:09.812Z,100710.39
2023-09-14T01:34:37.851Z,100711.73
2023-09-14T01:37:06.522Z,100712.98
2023-09-14T01:39:35.824Z,100716.25
2023-09-14T01:42:04.908Z,100716.32
2023-09-14T01:44:34.174Z,100721.75
2023-09-14T01:47:02.630Z,100726.55
2023-09-14T01:49:31.069Z,100717.52
2023-09-14T01:51:59.479Z,100731.79
2023-09-14T01:54:27.462Z,100736.13
2023-09-14T01:56:55.366Z,100738.45
2023-09-14T01:59:23.417Z,100740.60
2023-09-14T02:01:51.557Z,100744.48
2023-09-14T02:04:19.473Z,100748.38
2023-09-14T02:06:47.366Z,100749.98
2023-09-14T02:09:15.276Z,100758.50
2023-09-14T02:11:44.920Z,100758.18
2023-09-14T02:14:12.869Z,100757.09
2023-09-14T02:16:41.345Z,100757.43
2023-09-14T02:19:09.749Z,100757.30
2023-09-14T02:21:37.691Z,100755.77
2023-09-14T02:24:05.963Z,100756.34
2023-09-14T02:26:33.847Z,100757.17
2023-09-14T02:29:01.771Z,100757.91
2023-09-14T02:31:29.870Z,100758.49
2023-09-14T02:33:58.268Z,100762.77
2023-09-14T02:36:27.477Z,100765.41
2023-09-14T02:38:55.383Z,100769.54
2023-09-14T02:41:23.303Z,100771.50
2023-09-14T02:43:51.260Z,100771.17
2023-09-14T02:46:19.302Z,100770.89
2023-09-14T02:48:47.505Z,100772.81
2023-09-14T02:51:15.871Z,100773.89
2023-09-14T02:53:43.743Z,100777.13
2023-09-14T02:56:11.950Z,100779.98
2023-09-14T02:58:41.159Z,100783.23
2023-09-14T03:01:11.449Z,100785.04
2023-09-14T03:03:40.675Z,100786.76
2023-09-14T03:06:09.017Z,100791.96
2023-09-14T03:08:37.236Z,100794.77
2023-09-14T03:11:05.984Z,100797.98
2023-09-14T03:13:34.151Z,100801.97
2023-09-14T03:16:02.332Z,100801.95
2023-09-14T03:18:30.460Z,100800.22
2023-09-14T03:20:58.374Z,100803.50
2023-09-14T03:23:26.455Z,100804.30
2023-09-14T03:25:57.298Z,100807.71
2023-09-14T03:28:25.332Z,100809.81
2023-09-14T03:30:53.416Z,100806.52
2023-09-14T03:33:21.387Z,100809.00
2023-09-14T03:35:49.344Z,100818.14
2023-09-14T03:38:19.239Z,100814.86
2023-09-14T03:40:47.733Z,100820.44
2023-09-14T03:43:15.675Z,100826.27
2023-09-14T03:45:43.975Z,100824.93
2023-09-14T03:48:12.204Z,100824.25
2023-09-14T03:50:40.190Z,100826.77
2023-09-14T03:53:09.230Z,100827.42
2023-09-14T03:55:37.475Z,100838.11
2023-09-14T03:58:05.611Z,100839.40
2023-09-14T04:00:34.045Z,100848.91
2023-09-14T04:03:02.208Z,100852.94
2023-09-14T04:05:30.175Z,100855.20
2023-09-14T04:07:58.084Z,100860.16
2023-09-14T04:10:25.964Z,100866.90
2023-09-14T04:13:19.001Z,100868.02
2023-09-14T04:15:46.953Z,100870.80
2023-09-14T04:18:15.164Z,100867.64
2023-09-14T04:20:43.104Z,100868.74
2023-09-14T04:23:11.108Z,100870.16
2023-09-14T04:25:43.476Z,100874.44
2023-09-14T04:28:13.613Z,100874.11
2023-09-14T04:30:59.480Z,100876.96
2023-09-14T04:33:31.036Z,100879.06
2023-09-14T04:36:06.455Z,100877.09
2023-09-14T04:38:34.939Z,100876.80
2023-09-14T04:41:07.593Z,100876.77
2023-09-14T04:43:36.138Z,100879.11
2023-09-14T04:46:05.990Z,100883.73
2023-09-14T04:48:36.693Z,100883.35
2023-09-14T04:51:05.573Z,100888.39
2023-09-14T04:53:33.961Z,100889.10
2023-09-14T04:56:02.006Z,100889.34
2023-09-14T04:58:30.788Z,100891.22
2023-09-14T05:00:58.995Z,100895.41
2023-09-14T05:03:27.172Z,100893.22
2023-09-14T05:05:56.137Z,100901.83
2023-09-14T05:08:24.259Z,100903.48
2023-09-14T05:10:54.583Z,100911.55
2023-09-14T05:13:24.404Z,100914.27
2023-09-14T05:15:52.668Z,100911.50
2023-09-14T05:18:28.722Z,100920.83
2023-09-14T05:20:56.815Z,100913.53
2023-09-14T05:23:24.988Z,100921.80
2023-09-14T05:25:53.313Z,100926.02
2023-09-14T05:28:21.617Z,100929.81
2023-09-14T05:30:49.950Z,100933.81
2023-09-14T05:33:19.149Z,100937.11
2023-09-14T05:35:49.594Z,100937.20
2023-09-14T05:38:18.371Z,100941.95
2023-09-14T05:40:47.232Z,100937.44
2023-09-14T05:43:15.198Z,100934.55
2023-09-14T05:45:43.451Z,100933.69
2023-09-14T05:48:11.524Z,100937.04
2023-09-14T05:50:39.543Z,100938.41
2023-09-14T05:53:09.401Z,100940.61
2023-09-14T05:55:39.023Z,100943.34
2023-09-14T05:58:07.889Z,100951.31
2023-09-14T06:00:35.893Z,100954.13
2023-09-14T06:03:04.699Z,100957.17
2023-09-14T06:05:32.997Z,100958.03
2023-09-14T06:08:01.265Z,100958.63
2023-09-14T06:10:29.958Z,100962.02
2023-09-14T06:12:58.055Z,100961.63
2023-09-14T06:15:26.130Z,100961.63
2023-09-14T06:17:54.072Z,100959.73
2023-09-14T06:20:22.202Z,100965.52
2023-09-14T06:22:50.235Z,100969.98
2023-09-14T06:25:18.309Z,100969.86
2023-09-14T06:27:47.057Z,100974.29
2023-09-14T06:30:15.088Z,100976.85
2023-09-14T06:32:43.045Z,100983.34
2023-09-14T06:35:11.903Z,100982.82
2023-09-14T06:37:39.894Z,100983.77
2023-09-14T06:40:08.786Z,100982.06
2023-09-14T06:42:37.225Z,100981.55
2023-09-14T06:45:07.953Z,100983.94
2023-09-14T06:47:38.368Z,100984.50
2023-09-14T06:50:07.687Z,100984.52
2023-09-14T06:52:35.860Z,100988.14
2023-09-14T06:55:04.743Z,100985.59
2023-09-14T06:57:32.700Z,100990.38
2023-09-14T07:00:02.028Z,100989.54
2023-09-14T07:02:30.148Z,100989.95
2023-09-14T07:04:58.231Z,100996.92
2023-09-14T07:07:26.227Z,101002.54
2023-09-14T07:09:54.240Z,101008.16
2023-09-14T07:12:22.282Z,101011.92
2023-09-14T07:14:50.560Z,101016.52
2023-09-14T07:17:19.280Z,101022.48
2023-09-14T07:19:48.475Z,101023.95
2023-09-14T07:22:16.458Z,101029.58
2023-09-14T07:24:44.438Z,101031.44
2023-09-14T07:27:12.456Z,101031.82
2023-09-14T07:29:40.472Z,101029.95
2023-09-14T07:32:08.482Z,101028.16
2023-09-14T07:34:36.565Z,101028.20
2023-09-14T07:37:05.492Z,101025.98
2023-09-14T07:39:34.073Z,101028.40
2023-09-14T07:42:02.085Z,101028.27
2023-09-14T07:44:30.003Z,101034.10
2023-09-14T07:46:57.978Z,101038.46
2023-09-14T07:49:26.057Z,101042.33
2023-09-14T07:51:53.978Z,101046.80
2023-09-14T07:54:22.242Z,101049.95
2023-09-14T07:56:50.151Z,101053.79
2023-09-14T07:59:18.096Z,101052.04
2023-09-14T08:01:46.622Z,101056.14
2023-09-14T08:04:14.645Z,101059.39
2023-09-14T08:06:42.635Z,101063.61
2023-09-14T08:09:10.556Z,101064.09
2023-09-14T08:11:39.080Z,101059.99
2023-09-14T08:14:07.046Z,101059.44
2023-09-14T08:16:35.048Z,101054.34
2023-09-14T08:19:03.340Z,101064.52
2023-09-14T08:21:31.326Z,101059.58
2023-09-14T08:23:59.218Z,101060.52
2023-09-14T08:26:27.131Z,101057.21
2023-09-14T08:28:55.068Z,101058.01
2023-09-14T08:31:23.221Z,101058.98
2023-09-14T08:33:51.329Z,101062.83
2023-09-14T08:36:19.191Z,101063.07
2023-09-14T08:38:47.068Z,101067.73
2023-09-14T08:41:38.080Z,101065.41
2023-09-14T08:44:06.020Z,101064.90
2023-09-14T08:46:36.343Z,101070.61
2023-09-14T08:49:06.404Z,101066.94
2023-09-14T08:51:38.480Z,101076.50
2023-09-14T08:54:16.387Z,101078.90
2023-09-14T08:56:46.510Z,101079.06
2023-09-14T08:59:17.515Z,101079.07
2023-09-14T09:01:46.303Z,101081.00
2023-09-14T09:04:14.588Z,101080.14
2023-09-14T09:06:43.624Z,101085.61
2023-09-14T09:09:16.635Z,101090.83
2023-09-14T09:11:45.067Z,101090.90
2023-09-14T09:14:13.023Z,101092.16
2023-09-14T09:16:41.141Z,101091.36
2023-09-14T09:19:11.420Z,101091.46
2023-09-14T09:21:42.815Z,101088.23
2023-09-14T09:24:14.433Z,101086.52
2023-09-14T09:26:42.934Z,101085.42
2023-09-14T09:29:18.107Z,101093.42
2023-09-14T09:31:51.645Z,101091.48
2023-09-14T09:34:34.528Z,101084.95
2023-09-14T09:37:02.639Z,101083.52
2023-09-14T09:39:36.704Z,101087.02
2023-09-14T09:42:05.661Z,101088.75
2023-09-14T09:44:35.967Z,101086.62
2023-09-14T09:47:04.405Z,101089.67
2023-09-14T09:49:32.932Z,101086.26
2023-09-14T09:52:01.915Z,101088.02
2023-09-14T09:54:31.697Z,101091.08
2023-09-14T09:57:00.283Z,101091.23
2023-09-14T09:59:54.202Z,101093.17
2023-09-14T10:02:37.708Z,101092.24
2023-09-14T10:05:08.238Z,101090.65
2023-09-14T10:07:42.167Z,101085.70
2023-09-14T10:10:11.915Z,101091.57
2023-09-14T10:12:40.565Z,101092.58
2023-09-14T10:15:10.010Z,101084.17
2023-09-14T10:17:38.285Z,101082.66
2023-09-14T10:20:09.880Z,101083.18
2023-09-14T10:22:41.645Z,101089.20
2023-09-14T10:25:10.073Z,101092.13
2023-09-14T10:27:39.222Z,101090.80
2023-09-14T10:30:10.035Z,101087.32
2023-09-14T10:32:40.313Z,101078.09
2023-09-14T10:35:09.112Z,101072.48
2023-09-14T10:40:44.523Z,101073.36
2023-09-14T10:43:12.669Z,101074.57
2023-09-14T10:45:46.718Z,101072.34
2023-09-14T10:48:22.906Z,101072.52
2023-09-14T10:50:51.795Z,101071.46
2023-09-14T10:53:23.721Z,101077.15
2023-09-14T10:55:51.954Z,101072.73
2023-09-14T10:58:20.087Z,101070.48
2023-09-14T11:00:58.045Z,101072.71
2023-09-14T11:03:28.497Z,101078.41
2023-09-14T11:05:57.719Z,101084.13
2023-09-14T11:08:42.754Z,101072.52
2023-09-14T11:11:11.731Z,101071.88
2023-09-14T11:13:40.056Z,101076.48
2023-09-14T11:16:16.139Z,101076.70
2023-09-14T11:21:37.290Z,101074.91
2023-09-14T11:24:09.058Z,101076.55
2023-09-14T11:26:46.062Z,101075.05
2023-09-14T11:29:16.287Z,101073.98
2023-09-14T11:34:19.424Z,101072.91
2023-09-14T11:36:50.683Z,101069.55
2023-09-14T11:39:21.411Z,101064.61
2023-09-14T11:41:54.851Z,101066.84
2023-09-14T11:44:44.049Z,101070.26
2023-09-14T11:47:15.727Z,101067.90
2023-09-14T11:49:51.124Z,101067.15
2023-09-14T11:52:22.888Z,101064.88
2023-09-14T11:54:55.819Z,101069.85
2023-09-14T11:57:29.340Z,101070.31
2023-09-14T11:59:57.601Z,101069.45
2023-09-14T12:02:25.866Z,101071.58
2023-09-14T12:04:54.621Z,101070.50
2023-09-14T12:07:22.982Z,101076.39
2023-09-14T12:09:51.507Z,101075.45
2023-09-14T12:12:31.525Z,101074.23
2023-09-14T12:15:00.164Z,101075.80
2023-09-14T12:17:30.224Z,101075.59
2023-09-14T12:20:00.668Z,101069.50
2023-09-14T12:23:08.336Z,101083.08
2023-09-14T12:26:27.652Z,101089.63
2023-09-14T12:29:02.428Z,101088.66
2023-09-14T12:31:33.162Z,101082.81
2023-09-14T12:34:04.735Z,101083.46
2023-09-14T12:36:44.070Z,101084.88
2023-09-14T12:39:16.525Z,101085.34
2023-09-14T12:41:53.783Z,101078.75
2023-09-14T12:44:33.225Z,101076.02
2023-09-14T12:47:02.990Z,101069.95
2023-09-14T12:49:35.838Z,101066.41
2023-09-14T12:52:09.544Z,101064.92
2023-09-14T12:54:41.735Z,101057.81
2023-09-14T12:57:21.236Z,101057.98
2023-09-14T13:00:12.906Z,101058.05
2023-09-14T13:02:49.826Z,101060.38
2023-09-14T13:05:25.856Z,101056.02
2023-09-14T13:08:01.639Z,101065.25
2023-09-14T13:10:44.625Z,101069.58
2023-09-14T13:13:33.585Z,101070.60
2023-09-14T13:16:03.985Z,101076.27
2023-09-14T13:18:38.313Z,101076.79
2023-09-14T13:21:10.369Z,101076.03
2023-09-14T13:23:46.892Z,101077.02
2023-09-14T13:27:45.329Z,101079.04
2023-09-14T13:30:51.641Z,101081.07
2023-09-14T13:33:26.722Z,101078.70
2023-09-14T13:35:57.328Z,101080.13
2023-09-14T13:38:26.220Z,101080.09
2023-09-14T13:40:54.920Z,101079.90
2023-09-14T13:43:23.204Z,101080.30
2023-09-14T13:45:52.949Z,101075.36
2023-09-14T13:48:21.004Z,101078.83
2023-09-14T13:50:49.020Z,101073.45
2023-09-14T13:53:17.304Z,101073.80
2023-09-14T13:55:47.611Z,101067.27
2023-09-14T13:58:21.138Z,101060.40
2023-09-14T14:00:49.548Z,101060.88
2023-09-14T14:03:17.917Z,101058.80
2023-09-14T14:06:02.724Z,101051.03
2023-09-14T14:08:33.622Z,101053.26
2023-09-14T14:11:01.689Z,101053.98
2023-09-14T14:13:29.626Z,101054.09
2023-09-14T14:15:57.862Z,101051.05
2023-09-14T14:18:26.589Z,101050.92
2023-09-14T14:20:55.385Z,101054.50
2023-09-14T14:23:23.885Z,101054.42
2023-09-14T14:25:51.939Z,101063.69
2023-09-14T14:28:20.081Z,101063.30
2023-09-14T14:30:48.101Z,101060.84
2023-09-14T14:33:16.045Z,101058.14
2023-09-14T14:35:44.136Z,101061.33
2023-09-14T14:38:12.056Z,101061.00
2023-09-14T14:41:09.806Z,101060.41
2023-09-14T14:43:27.952Z,101060.70
2023-09-14T14:45:58.339Z,101061.02
2023-09-14T14:48:26.600Z,101063.55
2023-09-14T14:51:01.687Z,101066.15
2023-09-14T14:53:29.744Z,101066.13
2023-09-14T14:55:57.645Z,101063.15
2023-09-14T14:58:26.260Z,101066.80
2023-09-14T15:00:56.765Z,101069.79
2023-09-14T15:03:27.536Z,101068.36
2023-09-14T15:06:00.693Z,101070.02
2023-09-14T15:08:28.719Z,101070.99
2023-09-14T15:10:56.735Z,101072.09
2023-09-14T15:13:24.742Z,101071.80
2023-09-14T15:15:52.793Z,101069.52
2023-09-14T15:18:20.824Z,101073.55
2023-09-14T15:20:49.034Z,101077.96
2023-09-14T15:23:17.056Z,101078.99
2023-09-14T15:25:47.064Z,101077.89
2023-09-14T15:28:15.119Z,101078.52
2023-09-14T15:30:43.017Z,101079.67
2023-09-14T15:33:10.965Z,101078.02
2023-09-14T15:35:39.377Z,101079.42
2023-09-14T15:38:07.405Z,101085.08
2023-09-14T15:40:35.452Z,101080.75
2023-09-14T15:43:04.231Z,101087.93
2023-09-14T15:45:40.462Z,101086.83
2023-09-14T15:48:10.246Z,101081.84
2023-09-14T15:50:38.174Z,101088.40
2023-09-14T15:53:06.184Z,101092.62
2023-09-14T15:55:34.164Z,101092.55
2023-09-14T15:58:02.663Z,101099.52
2023-09-14T16:00:32.232Z,101098.09
2023-09-14T16:03:00.384Z,101101.73
2023-09-14T16:05:28.616Z,101101.30
2023-09-14T16:08:12.547Z,101107.55
2023-09-14T16:10:41.742Z,101107.28
2023-09-14T16:13:10.815Z,101104.95
2023-09-14T16:15:40.112Z,101110.45
2023-09-14T16:18:08.261Z,101109.43
2023-09-14T16:20:36.459Z,101109.69
2023-09-14T16:23:04.566Z,101112.81
2023-09-14T16:25:32.660Z,101111.30
2023-09-14T16:28:00.574Z,101109.66
2023-09-14T16:30:28.879Z,101106.48
2023-09-14T16:32:57.739Z,101108.05
2023-09-14T16:35:25.835Z,101105.38
2023-09-14T16:37:53.933Z,101105.66
2023-09-14T16:40:21.904Z,101106.80
2023-09-14T16:42:49.885Z,101108.48
2023-09-14T16:45:18.769Z,101109.99
2023-09-14T16:47:46.765Z,101110.42
2023-09-14T16:50:14.880Z,101109.37
2023-09-14T16:52:43.124Z,101109.92
2023-09-14T16:55:11.011Z,101112.63
2023-09-14T16:57:39.278Z,101116.71
2023-09-14T17:00:09.254Z,101103.54
2023-09-14T17:02:37.327Z,101120.64
2023-09-14T17:05:07.046Z,101117.46
2023-09-14T17:07:35.391Z,101118.34
2023-09-14T17:10:05.220Z,101117.91
2023-09-14T17:12:33.446Z,101121.66
2023-09-14T17:15:01.912Z,101128.36
2023-09-14T17:38:00.650Z,101142.80
2023-09-14T17:40:28.623Z,101149.89
2023-09-14T17:42:56.560Z,101148.55
2023-09-14T17:45:24.554Z,101150.00
2023-09-14T17:47:52.544Z,101146.40
2023-09-14T17:50:20.488Z,101152.42
2023-09-14T17:52:48.390Z,101153.30
2023-09-14T17:55:17.263Z,101153.13
2023-09-14T17:57:45.841Z,101153.71
2023-09-14T18:00:14.594Z,101159.60
2023-09-14T18:02:47.022Z,101160.77
2023-09-14T18:05:16.053Z,101161.53
2023-09-14T18:07:45.102Z,101164.91
2023-09-14T18:10:13.444Z,101165.80
2023-09-14T18:12:42.248Z,101169.76
2023-09-14T18:15:11.266Z,101173.02
2023-09-14T18:17:39.495Z,101173.97
2023-09-14T18:20:11.428Z,101181.05
2023-09-14T18:22:41.966Z,101180.31
2023-09-14T18:25:11.111Z,101183.46
2023-09-14T18:27:39.828Z,101180.77
2023-09-14T18:30:10.034Z,101188.17
2023-09-14T18:32:53.686Z,101189.89
2023-09-14T18:35:22.453Z,101192.71
2023-09-14T18:37:52.041Z,101191.41
2023-09-14T18:40:22.848Z,101193.35
2023-09-14T18:42:56.604Z,101194.52
2023-09-14T18:45:26.209Z,101196.70
2023-09-14T18:47:54.229Z,101204.63
2023-09-14T18:50:23.095Z,101211.42
2023-09-14T18:52:51.038Z,101208.23
2023-09-14T18:55:24.559Z,101207.28
2023-09-14T18:57:53.801Z,101211.88
2023-09-14T19:00:22.244Z,101209.96
2023-09-14T19:02:50.122Z,101208.86
2023-09-14T19:05:18.703Z,101215.23
2023-09-14T19:07:49.585Z,101216.98
2023-09-14T19:10:17.814Z,101219.76
2023-09-14T19:12:46.539Z,101224.98
2023-09-14T19:15:14.991Z,101221.59
2023-09-14T19:17:44.194Z,101223.38
2023-09-14T19:20:13.000Z,101225.41
2023-09-14T19:22:40.968Z,101219.48
2023-09-14T19:25:09.249Z,101220.58
2023-09-14T19:27:37.594Z,101220.52
2023-09-14T19:30:09.950Z,101221.35
2023-09-14T19:32:41.229Z,101228.14
2023-09-14T19:35:10.642Z,101229.85
2023-09-14T19:37:39.584Z,101231.98
2023-09-14T19:40:09.039Z,101234.35
2023-09-14T19:42:38.759Z,101232.63
2023-09-14T19:45:07.428Z,101233.99
2023-09-14T19:47:39.448Z,101236.52
2023-09-14T19:50:08.966Z,101236.92
2023-09-14T19:52:36.998Z,101234.88
2023-09-14T19:55:05.542Z,101236.22
2023-09-14T19:57:33.978Z,101233.27
2023-09-14T20:00:02.017Z,101238.14
2023-09-14T20:02:37.860Z,101234.26
2023-09-14T20:05:06.251Z,101233.05
2023-09-14T20:07:35.428Z,101235.04
2023-09-14T20:10:07.686Z,101233.77
2023-09-14T20:12:37.295Z,101236.06
2023-09-14T20:15:08.149Z,101239.90
2023-09-14T20:17:36.610Z,101240.03
2023-09-14T20:20:06.859Z,101237.11
2023-09-14T20:22:34.910Z,101239.16
2023-09-14T20:25:02.922Z,101237.55
2023-09-14T20:27:31.471Z,101241.15
2023-09-14T20:29:59.458Z,101237.83
2023-09-14T20:32:27.960Z,101237.98
2023-09-14T20:34:55.902Z,101235.04
2023-09-14T20:37:23.860Z,101232.59
2023-09-14T20:39:51.821Z,101233.80
2023-09-14T20:42:20.164Z,101233.05
2023-09-14T20:44:49.293Z,101230.96
2023-09-14T20:47:21.755Z,101232.18
2023-09-14T20:50:58.021Z,101240.29
2023-09-14T20:53:25.908Z,101240.74
2023-09-14T20:55:54.893Z,101238.33
2023-09-14T20:58:24.618Z,101246.27
2023-09-14T21:00:53.837Z,101242.76
2023-09-14T21:03:22.356Z,101248.60
2023-09-14T21:05:58.834Z,101256.05
2023-09-14T21:12:03.687Z,101261.20
2023-09-14T21:14:42.780Z,101260.45
2023-09-14T21:17:10.982Z,101261.73
2023-09-14T21:19:44.280Z,101263.73
2023-09-14T21:22:12.410Z,101268.20
2023-09-14T21:24:40.396Z,101267.03
2023-09-14T21:27:08.315Z,101268.83
2023-09-14T21:34:27.823Z,101271.02
2023-09-14T21:36:59.886Z,101274.95
2023-09-14T21:39:34.945Z,101275.70
2023-09-14T21:42:08.424Z,101272.97
2023-09-14T21:44:38.862Z,101273.02
2023-09-14T21:47:07.634Z,101278.80
2023-09-14T21:49:39.684Z,101273.52
2023-09-14T21:52:11.028Z,101279.64
2023-09-14T21:54:40.933Z,101283.98
2023-09-14T21:57:09.474Z,101283.07
2023-09-14T21:59:43.570Z,101283.99
2023-09-14T22:02:13.426Z,101284.45
2023-09-14T22:07:28.221Z,101271.31
2023-09-14T22:09:56.231Z,101283.84
2023-09-14T22:12:25.925Z,101285.05
2023-09-14T22:14:54.079Z,101287.38
2023-09-14T22:17:22.124Z,101283.23
2023-09-14T22:19:50.048Z,101286.27
2023-09-14T22:22:18.054Z,101287.84
2023-09-14T22:24:46.267Z,101287.18
2023-09-14T22:27:14.115Z,101289.38
2023-09-14T22:29:42.087Z,101291.88
2023-09-14T22:32:10.031Z,101290.00
2023-09-14T22:34:37.869Z,101286.14
2023-09-14T22:37:06.494Z,101291.59
2023-09-14T22:39:34.670Z,101293.84
2023-09-14T22:42:02.600Z,101294.95
2023-09-14T22:44:30.634Z,101299.96
2023-09-14T22:46:58.693Z,101299.75
2023-09-14T22:49:27.515Z,101306.33
2023-09-14T22:51:55.596Z,101309.54
2023-09-14T22:54:24.058Z,101310.36
2023-09-14T22:56:52.125Z,101311.78
2023-09-14T22:59:20.121Z,101312.82
2023-09-14T23:01:49.515Z,101317.53
2023-09-14T23:04:17.901Z,101316.13
2023-09-14T23:06:46.073Z,101315.41
2023-09-14T23:09:16.042Z,101317.95
2023-09-14T23:11:44.634Z,101311.73
2023-09-14T23:14:13.296Z,101318.48
2023-09-14T23:16:53.820Z,101311.65
2023-09-14T23:19:27.599Z,101319.89
2023-09-14T23:21:58.312Z,101318.77
2023-09-14T23:24:29.090Z,101322.11
2023-09-14T23:26:57.402Z,101325.33
2023-09-14T23:29:25.626Z,101324.77
2023-09-14T23:31:55.712Z,101323.02
2023-09-14T23:34:24.700Z,101322.23
2023-09-14T23:36:52.875Z,101319.95
2023-09-14T23:39:20.913Z,101322.05
2023-09-14T23:41:49.900Z,101320.70
2023-09-14T23:44:19.583Z,101315.91
2023-09-14T23:46:47.880Z,101315.28
2023-09-14T23:49:17.931Z,101318.83
2023-09-14T23:51:46.284Z,101320.41
2023-09-14T23:54:15.938Z,101321.24
2023-09-14T23:56:43.841Z,101322.73
2023-09-14T23:59:11.907Z,101327.02
